sensor_id;sensor_type;location;lat;lon;timestamp;P1;durP1;ratioP1;P2;durP2;ratioP2
21416;SDS011;10869;52.238;10.716;2022-12-07T04:07:16;76.13;;;39.93;;
21416;SDS011;10869;52.238;10.716;2022-12-07T04:09:42;70.17;;;38.23;;
21416;SDS011;10869;52.238;10.716;2022-12-07T04:12:07;81.17;;;40.03;;
21416;SDS011;10869;52.238;10.716;2022-12-07T04:14:33;71.30;;;38.20;;
21416;SDS011;10869;52.238;10.716;2022-12-07T04:16:59;94.70;;;42.50;;
21416;SDS011;10869;52.238;10.716;2022-12-07T04:19:26;80.67;;;41.80;;
21416;SDS011;10869;52.238;10.716;2022-12-07T04:21:54;80.73;;;40.63;;
21416;SDS011;10869;52.238;10.716;2022-12-07T04:24:20;79.33;;;39.47;;
21416;SDS011;10869;52.238;10.716;2022-12-07T04:26:46;90.40;;;40.90;;
21416;SDS011;10869;52.238;10.716;2022-12-07T04:29:13;85.83;;;40.20;;
21416;SDS011;10869;52.238;10.716;2022-12-07T04:31:39;89.43;;;41.33;;
21416;SDS011;10869;52.238;10.716;2022-12-07T04:34:05;69.23;;;38.30;;
21416;SDS011;10869;52.238;10.716;2022-12-07T04:36:32;83.17;;;37.23;;
21416;SDS011;10869;52.238;10.716;2022-12-07T04:39:03;74.70;;;37.33;;
21416;SDS011;10869;52.238;10.716;2022-12-07T04:41:30;64.10;;;34.90;;
21416;SDS011;10869;52.238;10.716;2022-12-07T04:43:57;72.13;;;36.40;;
21416;SDS011;10869;52.238;10.716;2022-12-07T04:46:26;65.70;;;35.10;;
21416;SDS011;10869;52.238;10.716;2022-12-07T04:48:52;66.07;;;33.77;;
21416;SDS011;10869;52.238;10.716;2022-12-07T04:51:19;69.90;;;34.83;;
21416;SDS011;10869;52.238;10.716;2022-12-07T04:53:47;73.07;;;37.30;;
21416;SDS011;10869;52.238;10.716;2022-12-07T04:56:14;76.57;;;37.20;;
21416;SDS011;10869;52.238;10.716;2022-12-07T04:58:41;70.83;;;33.73;;
21416;SDS011;10869;52.238;10.716;2022-12-07T05:01:08;58.60;;;33.40;;
21416;SDS011;10869;52.238;10.716;2022-12-07T05:03:34;64.33;;;33.20;;
21416;SDS011;10869;52.238;10.716;2022-12-07T05:06:00;63.10;;;32.83;;
21416;SDS011;10869;52.238;10.716;2022-12-07T05:08:26;61.80;;;32.47;;
21416;SDS011;10869;52.238;10.716;2022-12-07T05:10:52;66.93;;;31.73;;
21416;SDS011;10869;52.238;10.716;2022-12-07T05:13:18;66.20;;;32.30;;
21416;SDS011;10869;52.238;10.716;2022-12-07T05:15:43;63.87;;;30.77;;
21416;SDS011;10869;52.238;10.716;2022-12-07T05:18:10;61.90;;;29.27;;
21416;SDS011;10869;52.238;10.716;2022-12-07T05:20:37;54.90;;;28.97;;
21416;SDS011;10869;52.238;10.716;2022-12-07T05:23:04;50.47;;;27.13;;
21416;SDS011;10869;52.238;10.716;2022-12-07T05:25:30;62.37;;;30.73;;
21416;SDS011;10869;52.238;10.716;2022-12-07T05:27:56;56.57;;;30.53;;
21416;SDS011;10869;52.238;10.716;2022-12-07T05:30:22;55.83;;;27.40;;
21416;SDS011;10869;52.238;10.716;2022-12-07T05:32:50;55.83;;;29.43;;
21416;SDS011;10869;52.238;10.716;2022-12-07T05:35:17;49.90;;;27.33;;
21416;SDS011;10869;52.238;10.716;2022-12-07T05:37:45;49.33;;;25.80;;
21416;SDS011;10869;52.238;10.716;2022-12-07T05:40:13;60.67;;;27.37;;
21416;SDS011;10869;52.238;10.716;2022-12-07T05:42:39;57.37;;;26.37;;
21416;SDS011;10869;52.238;10.716;2022-12-07T05:45:07;55.13;;;26.70;;
21416;SDS011;10869;52.238;10.716;2022-12-07T05:47:34;48.67;;;27.17;;
21416;SDS011;10869;52.238;10.716;2022-12-07T05:50:00;66.57;;;29.17;;
21416;SDS011;10869;52.238;10.716;2022-12-07T05:52:26;51.07;;;26.23;;
21416;SDS011;10869;52.238;10.716;2022-12-07T05:54:52;48.87;;;24.90;;
21416;SDS011;10869;52.238;10.716;2022-12-07T05:57:18;54.67;;;28.67;;
21416;SDS011;10869;52.238;10.716;2022-12-07T05:59:44;50.60;;;25.83;;
21416;SDS011;10869;52.238;10.716;2022-12-07T06:02:11;48.83;;;25.47;;
21416;SDS011;10869;52.238;10.716;2022-12-07T06:04:42;49.83;;;25.00;;
21416;SDS011;10869;52.238;10.716;2022-12-07T06:07:11;48.50;;;26.27;;
21416;SDS011;10869;52.238;10.716;2022-12-07T06:09:38;53.40;;;25.00;;
21416;SDS011;10869;52.238;10.716;2022-12-07T06:12:04;58.30;;;27.63;;
21416;SDS011;10869;52.238;10.716;2022-12-07T06:14:49;46.73;;;24.60;;
21416;SDS011;10869;52.238;10.716;2022-12-07T06:17:15;57.00;;;25.93;;
21416;SDS011;10869;52.238;10.716;2022-12-07T06:19:41;53.83;;;26.07;;
21416;SDS011;10869;52.238;10.716;2022-12-07T06:22:09;48.07;;;24.23;;
21416;SDS011;10869;52.238;10.716;2022-12-07T06:24:36;48.73;;;24.20;;
21416;SDS011;10869;52.238;10.716;2022-12-07T06:30:24;52.00;;;23.97;;
21416;SDS011;10869;52.238;10.716;2022-12-07T06:32:50;55.10;;;25.97;;
21416;SDS011;10869;52.238;10.716;2022-12-07T06:35:16;48.00;;;25.40;;
21416;SDS011;10869;52.238;10.716;2022-12-07T06:41:04;38.27;;;21.10;;
21416;SDS011;10869;52.238;10.716;2022-12-07T06:43:30;30.30;;;18.00;;
21416;SDS011;10869;52.238;10.716;2022-12-07T07:06:08;10.07;;;4.63;;
21416;SDS011;10869;52.238;10.716;2022-12-07T07:19:13;23.83;;;10.37;;
21416;SDS011;10869;52.238;10.716;2022-12-07T07:28:48;42.53;;;19.70;;
21416;SDS011;10869;52.238;10.716;2022-12-07T07:43:56;50.53;;;24.07;;
21416;SDS011;10869;52.238;10.716;2022-12-07T07:46:25;53.50;;;25.00;;
21416;SDS011;10869;52.238;10.716;2022-12-07T07:48:54;61.37;;;27.03;;
21416;SDS011;10869;52.238;10.716;2022-12-07T07:51:29;56.73;;;25.10;;
21416;SDS011;10869;52.238;10.716;2022-12-07T07:53:58;51.53;;;26.37;;
21416;SDS011;10869;52.238;10.716;2022-12-07T08:25:50;54.50;;;26.50;;
21416;SDS011;10869;52.238;10.716;2022-12-07T08:31:38;50.77;;;26.10;;
21416;SDS011;10869;52.238;10.716;2022-12-07T08:37:25;49.20;;;21.60;;
21416;SDS011;10869;52.238;10.716;2022-12-07T08:43:13;43.90;;;20.93;;
21416;SDS011;10869;52.238;10.716;2022-12-07T08:49:03;52.30;;;24.00;;
21416;SDS011;10869;52.238;10.716;2022-12-07T08:54:54;44.47;;;22.00;;
21416;SDS011;10869;52.238;10.716;2022-12-07T09:00:46;41.67;;;21.47;;
21416;SDS011;10869;52.238;10.716;2022-12-07T09:03:11;35.17;;;21.37;;
21416;SDS011;10869;52.238;10.716;2022-12-07T09:05:37;46.30;;;23.03;;
21416;SDS011;10869;52.238;10.716;2022-12-07T09:08:03;44.57;;;22.13;;
21416;SDS011;10869;52.238;10.716;2022-12-07T09:10:29;38.93;;;21.43;;
21416;SDS011;10869;52.238;10.716;2022-12-07T09:16:17;37.27;;;20.70;;
21416;SDS011;10869;52.238;10.716;2022-12-07T09:18:42;41.70;;;21.93;;
21416;SDS011;10869;52.238;10.716;2022-12-07T09:21:08;37.80;;;20.70;;
21416;SDS011;10869;52.238;10.716;2022-12-07T09:23:34;33.97;;;20.27;;
21416;SDS011;10869;52.238;10.716;2022-12-07T09:26:01;37.83;;;20.93;;
21416;SDS011;10869;52.238;10.716;2022-12-07T09:28:42;35.23;;;19.90;;
21416;SDS011;10869;52.238;10.716;2022-12-07T09:31:07;41.80;;;22.60;;
21416;SDS011;10869;52.238;10.716;2022-12-07T09:33:33;43.70;;;23.33;;
21416;SDS011;10869;52.238;10.716;2022-12-07T09:35:59;38.40;;;21.33;;
21416;SDS011;10869;52.238;10.716;2022-12-07T09:38:24;37.83;;;20.67;;
21416;SDS011;10869;52.238;10.716;2022-12-07T09:40:51;31.93;;;21.27;;
21416;SDS011;10869;52.238;10.716;2022-12-07T09:43:20;36.63;;;19.97;;
21416;SDS011;10869;52.238;10.716;2022-12-07T09:45:50;42.97;;;22.97;;
21416;SDS011;10869;52.238;10.716;2022-12-07T09:48:29;37.10;;;21.47;;
21416;SDS011;10869;52.238;10.716;2022-12-07T09:50:58;34.47;;;19.67;;
21416;SDS011;10869;52.238;10.716;2022-12-07T09:53:34;32.30;;;18.87;;
21416;SDS011;10869;52.238;10.716;2022-12-07T09:56:05;28.63;;;18.87;;
21416;SDS011;10869;52.238;10.716;2022-12-07T09:58:31;35.43;;;19.83;;
21416;SDS011;10869;52.238;10.716;2022-12-07T10:03:37;40.30;;;22.30;;
21416;SDS011;10869;52.238;10.716;2022-12-07T10:09:39;35.37;;;20.53;;
21416;SDS011;10869;52.238;10.716;2022-12-07T10:12:06;39.80;;;19.93;;
21416;SDS011;10869;52.238;10.716;2022-12-07T10:14:35;39.87;;;19.27;;
21416;SDS011;10869;52.238;10.716;2022-12-07T10:17:29;24.20;;;15.73;;
21416;SDS011;10869;52.238;10.716;2022-12-07T10:20:19;25.90;;;15.73;;
21416;SDS011;10869;52.238;10.716;2022-12-07T10:23:03;26.07;;;15.40;;
21416;SDS011;10869;52.238;10.716;2022-12-07T10:25:34;25.90;;;14.90;;
21416;SDS011;10869;52.238;10.716;2022-12-07T10:30:33;26.13;;;15.20;;
21416;SDS011;10869;52.238;10.716;2022-12-07T10:33:37;24.20;;;13.97;;
21416;SDS011;10869;52.238;10.716;2022-12-07T10:41:55;27.87;;;16.07;;
21416;SDS011;10869;52.238;10.716;2022-12-07T10:44:29;29.90;;;15.70;;
21416;SDS011;10869;52.238;10.716;2022-12-07T10:46:59;23.60;;;15.20;;
21416;SDS011;10869;52.238;10.716;2022-12-07T10:55:12;21.50;;;11.30;;
21416;SDS011;10869;52.238;10.716;2022-12-07T10:57:47;23.37;;;12.23;;
21416;SDS011;10869;52.238;10.716;2022-12-07T11:14:40;19.73;;;11.73;;
21416;SDS011;10869;52.238;10.716;2022-12-07T11:25:20;22.27;;;12.17;;
21416;SDS011;10869;52.238;10.716;2022-12-07T11:31:24;16.53;;;10.30;;
21416;SDS011;10869;52.238;10.716;2022-12-07T11:33:37;20.83;;;9.53;;
21416;SDS011;10869;52.238;10.716;2022-12-07T11:39:33;16.20;;;9.17;;
21416;SDS011;10869;52.238;10.716;2022-12-07T11:42:09;16.50;;;7.90;;
21416;SDS011;10869;52.238;10.716;2022-12-07T11:47:22;12.67;;;6.70;;
21416;SDS011;10869;52.238;10.716;2022-12-07T11:49:53;17.57;;;7.27;;
21416;SDS011;10869;52.238;10.716;2022-12-07T11:55:14;16.67;;;7.13;;
21416;SDS011;10869;52.238;10.716;2022-12-07T11:57:45;17.17;;;7.23;;
21416;SDS011;10869;52.238;10.716;2022-12-07T12:00:17;18.77;;;6.57;;
21416;SDS011;10869;52.238;10.716;2022-12-07T12:02:55;13.60;;;5.53;;
21416;SDS011;10869;52.238;10.716;2022-12-07T12:05:26;16.23;;;4.67;;
21416;SDS011;10869;52.238;10.716;2022-12-07T12:14:02;14.03;;;3.93;;
21416;SDS011;10869;52.238;10.716;2022-12-07T12:22:16;13.13;;;5.37;;
21416;SDS011;10869;52.238;10.716;2022-12-07T12:24:45;10.67;;;4.03;;
21416;SDS011;10869;52.238;10.716;2022-12-07T12:30:24;11.30;;;4.27;;
21416;SDS011;10869;52.238;10.716;2022-12-07T12:33:05;12.07;;;5.27;;
21416;SDS011;10869;52.238;10.716;2022-12-07T12:36:17;12.97;;;4.30;;
21416;SDS011;10869;52.238;10.716;2022-12-07T12:57:32;12.93;;;5.83;;
21416;SDS011;10869;52.238;10.716;2022-12-07T12:59:59;14.07;;;6.20;;
21416;SDS011;10869;52.238;10.716;2022-12-07T13:05:01;16.53;;;5.20;;
21416;SDS011;10869;52.238;10.716;2022-12-07T13:07:54;14.77;;;4.40;;
21416;SDS011;10869;52.238;10.716;2022-12-07T13:10:40;19.30;;;5.30;;
21416;SDS011;10869;52.238;10.716;2022-12-07T13:15:49;11.40;;;5.77;;
21416;SDS011;10869;52.238;10.716;2022-12-07T13:20:57;11.53;;;4.93;;
21416;SDS011;10869;52.238;10.716;2022-12-07T13:32:23;12.83;;;4.37;;
21416;SDS011;10869;52.238;10.716;2022-12-07T13:38:34;9.50;;;4.53;;
21416;SDS011;10869;52.238;10.716;2022-12-07T13:44:22;9.30;;;4.00;;
21416;SDS011;10869;52.238;10.716;2022-12-07T13:46:51;9.37;;;5.23;;
21416;SDS011;10869;52.238;10.716;2022-12-07T13:52:43;10.37;;;5.70;;
21416;SDS011;10869;52.238;10.716;2022-12-07T13:55:16;13.17;;;5.90;;
21416;SDS011;10869;52.238;10.716;2022-12-07T13:57:42;18.07;;;5.60;;
21416;SDS011;10869;52.238;10.716;2022-12-07T14:03:34;11.37;;;4.50;;
21416;SDS011;10869;52.238;10.716;2022-12-07T14:06:05;11.13;;;4.03;;
21416;SDS011;10869;52.238;10.716;2022-12-07T14:09:07;11.00;;;4.23;;
21416;SDS011;10869;52.238;10.716;2022-12-07T14:11:47;14.57;;;4.17;;
21416;SDS011;10869;52.238;10.716;2022-12-07T14:17:38;12.77;;;4.07;;
21416;SDS011;10869;52.238;10.716;2022-12-07T14:20:32;17.50;;;4.43;;
21416;SDS011;10869;52.238;10.716;2022-12-07T14:22:58;19.80;;;5.83;;
21416;SDS011;10869;52.238;10.716;2022-12-07T14:25:27;15.87;;;5.73;;
21416;SDS011;10869;52.238;10.716;2022-12-07T14:31:17;15.17;;;4.53;;
21416;SDS011;10869;52.238;10.716;2022-12-07T14:33:51;13.33;;;3.77;;
21416;SDS011;10869;52.238;10.716;2022-12-07T14:36:17;8.60;;;3.77;;
21416;SDS011;10869;52.238;10.716;2022-12-07T14:38:43;10.67;;;3.73;;
21416;SDS011;10869;52.238;10.716;2022-12-07T14:41:15;12.23;;;4.63;;
21416;SDS011;10869;52.238;10.716;2022-12-07T14:44:13;14.70;;;5.30;;
21416;SDS011;10869;52.238;10.716;2022-12-07T14:46:42;15.57;;;4.97;;
21416;SDS011;10869;52.238;10.716;2022-12-07T14:49:07;12.43;;;3.97;;
21416;SDS011;10869;52.238;10.716;2022-12-07T14:51:33;12.40;;;3.97;;
21416;SDS011;10869;52.238;10.716;2022-12-07T14:57:28;16.93;;;5.10;;
21416;SDS011;10869;52.238;10.716;2022-12-07T15:03:16;17.40;;;6.00;;
21416;SDS011;10869;52.238;10.716;2022-12-07T15:05:44;15.40;;;5.93;;
21416;SDS011;10869;52.238;10.716;2022-12-07T15:08:16;15.20;;;5.93;;
21416;SDS011;10869;52.238;10.716;2022-12-07T15:10:47;15.23;;;5.80;;
21416;SDS011;10869;52.238;10.716;2022-12-07T15:16:41;15.07;;;5.60;;
21416;SDS011;10869;52.238;10.716;2022-12-07T15:19:14;18.30;;;4.40;;
21416;SDS011;10869;52.238;10.716;2022-12-07T15:21:43;13.30;;;4.57;;
21416;SDS011;10869;52.238;10.716;2022-12-07T15:24:10;17.20;;;6.23;;
21416;SDS011;10869;52.238;10.716;2022-12-07T15:31:47;11.40;;;3.93;;
21416;SDS011;10869;52.238;10.716;2022-12-07T15:44:08;15.43;;;5.17;;
21416;SDS011;10869;52.238;10.716;2022-12-07T15:50:18;21.03;;;5.57;;
21416;SDS011;10869;52.238;10.716;2022-12-07T15:52:44;18.03;;;7.10;;
21416;SDS011;10869;52.238;10.716;2022-12-07T15:55:10;14.97;;;6.67;;
21416;SDS011;10869;52.238;10.716;2022-12-07T16:00:57;16.80;;;3.93;;
21416;SDS011;10869;52.238;10.716;2022-12-07T16:03:23;12.13;;;3.27;;
21416;SDS011;10869;52.238;10.716;2022-12-07T16:05:49;15.77;;;4.90;;
21416;SDS011;10869;52.238;10.716;2022-12-07T16:08:16;15.50;;;4.83;;
21416;SDS011;10869;52.238;10.716;2022-12-07T16:10:42;9.50;;;4.07;;
21416;SDS011;10869;52.238;10.716;2022-12-07T16:13:11;12.03;;;4.67;;
21416;SDS011;10869;52.238;10.716;2022-12-07T16:15:39;17.57;;;5.80;;
21416;SDS011;10869;52.238;10.716;2022-12-07T16:21:35;16.97;;;7.73;;
21416;SDS011;10869;52.238;10.716;2022-12-07T16:24:01;16.87;;;6.00;;
21416;SDS011;10869;52.238;10.716;2022-12-07T16:29:49;17.93;;;6.93;;
21416;SDS011;10869;52.238;10.716;2022-12-07T16:32:15;22.07;;;8.70;;
21416;SDS011;10869;52.238;10.716;2022-12-07T16:34:41;23.67;;;10.40;;
21416;SDS011;10869;52.238;10.716;2022-12-07T16:37:07;18.73;;;9.83;;
21416;SDS011;10869;52.238;10.716;2022-12-07T16:39:34;21.60;;;8.57;;
21416;SDS011;10869;52.238;10.716;2022-12-07T16:42:00;16.43;;;7.73;;
21416;SDS011;10869;52.238;10.716;2022-12-07T16:44:26;18.80;;;9.63;;
21416;SDS011;10869;52.238;10.716;2022-12-07T16:46:51;18.80;;;7.83;;
21416;SDS011;10869;52.238;10.716;2022-12-07T16:49:17;14.93;;;5.43;;
21416;SDS011;10869;52.238;10.716;2022-12-07T16:51:49;13.93;;;5.40;;
21416;SDS011;10869;52.238;10.716;2022-12-07T16:54:16;15.43;;;5.97;;
21416;SDS011;10869;52.238;10.716;2022-12-07T16:56:42;10.33;;;4.60;;
21416;SDS011;10869;52.238;10.716;2022-12-07T16:59:08;9.63;;;4.73;;
21416;SDS011;10869;52.238;10.716;2022-12-07T17:01:33;9.83;;;3.77;;
21416;SDS011;10869;52.238;10.716;2022-12-07T17:03:59;11.17;;;3.13;;
21416;SDS011;10869;52.238;10.716;2022-12-07T17:06:26;9.13;;;3.30;;
21416;SDS011;10869;52.238;10.716;2022-12-07T17:08:53;10.03;;;4.13;;
21416;SDS011;10869;52.238;10.716;2022-12-07T17:11:22;11.07;;;4.47;;
21416;SDS011;10869;52.238;10.716;2022-12-07T17:13:49;13.57;;;3.57;;
21416;SDS011;10869;52.238;10.716;2022-12-07T17:16:34;8.50;;;3.40;;
21416;SDS011;10869;52.238;10.716;2022-12-07T17:19:03;8.03;;;2.80;;
21416;SDS011;10869;52.238;10.716;2022-12-07T17:21:30;9.83;;;4.17;;
21416;SDS011;10869;52.238;10.716;2022-12-07T17:23:58;5.93;;;3.63;;
21416;SDS011;10869;52.238;10.716;2022-12-07T17:26:28;10.63;;;4.10;;
21416;SDS011;10869;52.238;10.716;2022-12-07T17:28:54;14.77;;;5.13;;
21416;SDS011;10869;52.238;10.716;2022-12-07T17:31:21;13.53;;;4.63;;
21416;SDS011;10869;52.238;10.716;2022-12-07T17:33:48;19.13;;;7.13;;
21416;SDS011;10869;52.238;10.716;2022-12-07T17:36:22;11.73;;;5.60;;
21416;SDS011;10869;52.238;10.716;2022-12-07T17:38:50;12.57;;;4.63;;
21416;SDS011;10869;52.238;10.716;2022-12-07T17:41:21;16.67;;;5.10;;
21416;SDS011;10869;52.238;10.716;2022-12-07T17:44:08;19.03;;;5.60;;
21416;SDS011;10869;52.238;10.716;2022-12-07T17:46:35;13.63;;;6.90;;
21416;SDS011;10869;52.238;10.716;2022-12-07T17:49:02;20.30;;;7.83;;
21416;SDS011;10869;52.238;10.716;2022-12-07T17:54:51;23.10;;;13.03;;
21416;SDS011;10869;52.238;10.716;2022-12-07T17:57:17;19.47;;;10.83;;
21416;SDS011;10869;52.238;10.716;2022-12-07T17:59:42;25.17;;;11.10;;
21416;SDS011;10869;52.238;10.716;2022-12-07T18:02:09;27.77;;;13.63;;
21416;SDS011;10869;52.238;10.716;2022-12-07T18:04:35;26.17;;;12.47;;
21416;SDS011;10869;52.238;10.716;2022-12-07T18:07:01;20.73;;;11.83;;
21416;SDS011;10869;52.238;10.716;2022-12-07T18:09:29;21.60;;;11.87;;
21416;SDS011;10869;52.238;10.716;2022-12-07T18:11:55;20.50;;;13.50;;
21416;SDS011;10869;52.238;10.716;2022-12-07T18:14:21;19.83;;;11.17;;
21416;SDS011;10869;52.238;10.716;2022-12-07T18:16:46;16.83;;;11.87;;
21416;SDS011;10869;52.238;10.716;2022-12-07T18:19:13;19.70;;;12.50;;
21416;SDS011;10869;52.238;10.716;2022-12-07T18:21:41;18.80;;;10.93;;
21416;SDS011;10869;52.238;10.716;2022-12-07T18:24:07;23.37;;;11.23;;
21416;SDS011;10869;52.238;10.716;2022-12-07T18:26:37;26.13;;;17.43;;
21416;SDS011;10869;52.238;10.716;2022-12-07T18:29:04;19.07;;;12.27;;
21416;SDS011;10869;52.238;10.716;2022-12-07T18:31:31;19.03;;;11.70;;
21416;SDS011;10869;52.238;10.716;2022-12-07T18:34:02;19.27;;;11.33;;
21416;SDS011;10869;52.238;10.716;2022-12-07T18:36:29;24.03;;;12.77;;
21416;SDS011;10869;52.238;10.716;2022-12-07T18:38:55;20.53;;;10.90;;
21416;SDS011;10869;52.238;10.716;2022-12-07T18:41:21;19.83;;;10.63;;
21416;SDS011;10869;52.238;10.716;2022-12-07T18:43:47;20.47;;;10.53;;
21416;SDS011;10869;52.238;10.716;2022-12-07T18:46:14;16.50;;;9.53;;
21416;SDS011;10869;52.238;10.716;2022-12-07T18:48:42;17.87;;;8.77;;
21416;SDS011;10869;52.238;10.716;2022-12-07T18:51:09;21.57;;;9.97;;
21416;SDS011;10869;52.238;10.716;2022-12-07T18:53:36;23.67;;;11.10;;
21416;SDS011;10869;52.238;10.716;2022-12-07T18:58:33;15.30;;;8.50;;
21416;SDS011;10869;52.238;10.716;2022-12-07T19:00:59;15.50;;;8.60;;
21416;SDS011;10869;52.238;10.716;2022-12-07T19:03:26;19.20;;;11.40;;
21416;SDS011;10869;52.238;10.716;2022-12-07T19:05:52;18.90;;;10.80;;
21416;SDS011;10869;52.238;10.716;2022-12-07T19:08:21;17.20;;;11.83;;
21416;SDS011;10869;52.238;10.716;2022-12-07T19:10:48;22.27;;;12.83;;
21416;SDS011;10869;52.238;10.716;2022-12-07T19:13:15;29.03;;;14.87;;
21416;SDS011;10869;52.238;10.716;2022-12-07T19:15:41;29.13;;;15.53;;
21416;SDS011;10869;52.238;10.716;2022-12-07T19:18:12;30.37;;;16.63;;
21416;SDS011;10869;52.238;10.716;2022-12-07T19:20:46;24.33;;;15.93;;
21416;SDS011;10869;52.238;10.716;2022-12-07T19:23:12;19.20;;;11.60;;
21416;SDS011;10869;52.238;10.716;2022-12-07T19:25:41;20.20;;;12.90;;
21416;SDS011;10869;52.238;10.716;2022-12-07T19:28:17;18.20;;;11.93;;
21416;SDS011;10869;52.238;10.716;2022-12-07T19:48:55;16.90;;;8.70;;
21416;SDS011;10869;52.238;10.716;2022-12-07T19:51:22;20.97;;;9.80;;
21416;SDS011;10869;52.238;10.716;2022-12-07T19:53:48;13.63;;;6.80;;
21416;SDS011;10869;52.238;10.716;2022-12-07T19:59:36;13.93;;;6.77;;
21416;SDS011;10869;52.238;10.716;2022-12-07T20:05:24;13.83;;;6.47;;
21416;SDS011;10869;52.238;10.716;2022-12-07T20:07:52;17.57;;;7.63;;
21416;SDS011;10869;52.238;10.716;2022-12-07T20:10:18;12.33;;;6.47;;
21416;SDS011;10869;52.238;10.716;2022-12-07T20:12:44;25.30;;;13.57;;
21416;SDS011;10869;52.238;10.716;2022-12-07T20:15:28;22.57;;;11.80;;
21416;SDS011;10869;52.238;10.716;2022-12-07T20:17:53;17.13;;;7.63;;
21416;SDS011;10869;52.238;10.716;2022-12-07T20:23:42;17.87;;;8.90;;
21416;SDS011;10869;52.238;10.716;2022-12-07T20:29:29;17.47;;;9.80;;
21416;SDS011;10869;52.238;10.716;2022-12-07T20:31:55;26.03;;;14.07;;
21416;SDS011;10869;52.238;10.716;2022-12-07T20:53:02;23.13;;;12.47;;
21416;SDS011;10869;52.238;10.716;2022-12-07T20:55:28;24.70;;;14.67;;
21416;SDS011;10869;52.238;10.716;2022-12-07T20:57:55;27.13;;;14.67;;
21416;SDS011;10869;52.238;10.716;2022-12-07T21:00:21;29.00;;;17.00;;
21416;SDS011;10869;52.238;10.716;2022-12-07T21:06:11;31.60;;;16.37;;
21416;SDS011;10869;52.238;10.716;2022-12-07T21:12:02;28.60;;;15.77;;
21416;SDS011;10869;52.238;10.716;2022-12-07T21:14:41;28.70;;;18.33;;
21416;SDS011;10869;52.238;10.716;2022-12-07T21:17:09;30.97;;;18.33;;
21416;SDS011;10869;52.238;10.716;2022-12-07T21:19:45;34.17;;;17.13;;
21416;SDS011;10869;52.238;10.716;2022-12-07T21:22:11;31.47;;;17.03;;
21416;SDS011;10869;52.238;10.716;2022-12-07T21:24:39;33.87;;;18.33;;
21416;SDS011;10869;52.238;10.716;2022-12-07T21:27:06;45.70;;;20.57;;
21416;SDS011;10869;52.238;10.716;2022-12-07T21:29:32;31.53;;;16.87;;
21416;SDS011;10869;52.238;10.716;2022-12-07T21:31:58;37.33;;;16.80;;
21416;SDS011;10869;52.238;10.716;2022-12-07T21:37:49;35.67;;;17.23;;
21416;SDS011;10869;52.238;10.716;2022-12-07T21:40:17;32.80;;;16.67;;
21416;SDS011;10869;52.238;10.716;2022-12-07T21:42:43;34.90;;;18.27;;
21416;SDS011;10869;52.238;10.716;2022-12-07T21:45:09;32.23;;;17.27;;
21416;SDS011;10869;52.238;10.716;2022-12-07T21:51:07;38.87;;;18.67;;
21416;SDS011;10869;52.238;10.716;2022-12-07T21:53:36;29.90;;;16.30;;
21416;SDS011;10869;52.238;10.716;2022-12-07T21:56:02;41.20;;;17.63;;
21416;SDS011;10869;52.238;10.716;2022-12-07T21:58:29;28.50;;;17.00;;
21416;SDS011;10869;52.238;10.716;2022-12-07T22:00:56;29.77;;;17.30;;
21416;SDS011;10869;52.238;10.716;2022-12-07T22:03:23;30.70;;;16.90;;
21416;SDS011;10869;52.238;10.716;2022-12-07T22:05:49;29.20;;;16.93;;
21416;SDS011;10869;52.238;10.716;2022-12-07T22:08:16;30.27;;;17.00;;
21416;SDS011;10869;52.238;10.716;2022-12-07T22:14:04;33.87;;;17.43;;
21416;SDS011;10869;52.238;10.716;2022-12-07T22:16:52;42.70;;;19.20;;
21416;SDS011;10869;52.238;10.716;2022-12-07T22:19:18;33.47;;;17.40;;
21416;SDS011;10869;52.238;10.716;2022-12-07T22:21:47;31.77;;;17.70;;
21416;SDS011;10869;52.238;10.716;2022-12-07T22:24:12;47.90;;;19.40;;
21416;SDS011;10869;52.238;10.716;2022-12-07T22:26:40;28.53;;;17.17;;
21416;SDS011;10869;52.238;10.716;2022-12-07T22:29:06;31.13;;;17.47;;
21416;SDS011;10869;52.238;10.716;2022-12-07T22:31:32;36.50;;;19.17;;
21416;SDS011;10869;52.238;10.716;2022-12-07T22:33:59;26.53;;;17.67;;
21416;SDS011;10869;52.238;10.716;2022-12-07T22:36:25;34.40;;;18.30;;
21416;SDS011;10869;52.238;10.716;2022-12-07T22:38:53;31.40;;;17.67;;
21416;SDS011;10869;52.238;10.716;2022-12-07T22:41:23;39.10;;;18.33;;
21416;SDS011;10869;52.238;10.716;2022-12-07T22:43:51;34.47;;;18.20;;
21416;SDS011;10869;52.238;10.716;2022-12-07T22:46:17;29.43;;;17.43;;
21416;SDS011;10869;52.238;10.716;2022-12-07T22:48:44;31.90;;;17.93;;
21416;SDS011;10869;52.238;10.716;2022-12-07T23:17:17;35.97;;;18.23;;
21416;SDS011;10869;52.238;10.716;2022-12-07T23:19:46;33.87;;;17.60;;
21416;SDS011;10869;52.238;10.716;2022-12-07T23:22:16;31.53;;;18.67;;
21416;SDS011;10869;52.238;10.716;2022-12-07T23:24:43;32.37;;;18.30;;
21416;SDS011;10869;52.238;10.716;2022-12-07T23:27:12;32.97;;;19.30;;
21416;SDS011;10869;52.238;10.716;2022-12-07T23:29:38;34.70;;;19.70;;
21416;SDS011;10869;52.238;10.716;2022-12-07T23:32:04;32.20;;;20.43;;
21416;SDS011;10869;52.238;10.716;2022-12-07T23:34:30;31.97;;;19.60;;
21416;SDS011;10869;52.238;10.716;2022-12-07T23:36:56;38.50;;;19.73;;
21416;SDS011;10869;52.238;10.716;2022-12-07T23:39:29;35.20;;;21.03;;
21416;SDS011;10869;52.238;10.716;2022-12-07T23:41:56;29.30;;;19.33;;
21416;SDS011;10869;52.238;10.716;2022-12-07T23:44:22;32.40;;;19.27;;
21416;SDS011;10869;52.238;10.716;2022-12-07T23:46:48;28.90;;;19.20;;
21416;SDS011;10869;52.238;10.716;2022-12-07T23:49:14;36.77;;;19.10;;
21416;SDS011;10869;52.238;10.716;2022-12-07T23:51:42;29.77;;;18.70;;
21416;SDS011;10869;52.238;10.716;2022-12-07T23:54:09;41.80;;;20.53;;
21416;SDS011;10869;52.238;10.716;2022-12-07T23:56:36;31.83;;;19.27;;
21416;SDS011;10869;52.238;10.716;2022-12-07T23:59:04;33.80;;;18.30;;
